Terminal Aerodrome Forecast
Issued by NWS Charleston, WV

Current Version | Previous Version | Text Only | Print | Product List | Glossary Off
Versions: 1 2 3 4 5 6 7 8 9 10 11 12 13 14 15 16 17 18 19 20 21 22 23 24 25 26

000
FTUS41 KRLX 270851 AAA
TAFBKW
TAF AMD
KBKW 270851Z 2709/2806 00000KT P6SM SKC
     FM271800 28004KT 6SM HZ VCTS BKN035CB
     FM271900 29004KT 6SM HZ VCTS BKN025CB
     FM280000 00000KT 6SM HZ VCTS BKN035CB
     FM280100 00000KT 6SM HZ BKN035
     FM280300 00000KT 6SM BR SCT035=

USA.gov is the U.S. government's official web portal to all federal, state and local government web resources and services.